Time;durP1;ratioP1;P1;durP2;ratioP2;P2;SDS_P1;SDS_P2;PMS_P1;PMS_P2;Temp;Humidity;BMP_temperature;BMP_pressure;BME280_temperature;BME280_humidity;BME280_pressure;Samples;Min_cycle;Max_cycle;Signal;HPM_P1;HPM_P2
2024/01/08 00:00:16;;;;;;;11.50;6.20;;;1.50;44.20;;;;;;5022632;28;20041;-80
2024/01/08 00:02:42;;;;;;;9.82;6.00;;;1.60;44.30;;;;;;5020641;28;20053;-81
2024/01/08 00:05:08;;;;;;;10.77;6.72;;;1.50;44.10;;;;;;5020874;28;20034;-81
2024/01/08 00:07:34;;;;;;;9.00;5.30;;;1.60;44.10;;;;;;5021563;28;20044;-80
2024/01/08 00:10:00;;;;;;;12.73;6.15;;;1.60;44.10;;;;;;5021086;28;20424;-81
2024/01/08 00:12:27;;;;;;;15.02;6.22;;;1.60;44.30;;;;;;5004597;28;20037;-80
2024/01/08 00:14:53;;;;;;;13.68;6.13;;;1.60;44.10;;;;;;4991125;28;20030;-78
2024/01/08 00:17:19;;;;;;;11.18;6.05;;;1.60;44.10;;;;;;5024240;28;20060;-79
2024/01/08 00:19:44;;;;;;;10.27;5.85;;;1.60;44.10;;;;;;5020847;28;20680;-80
2024/01/08 00:22:10;;;;;;;10.02;5.75;;;1.60;44.30;;;;;;5023097;28;20045;-79
2024/01/08 00:24:36;;;;;;;11.00;6.10;;;1.70;44.20;;;;;;5007012;28;20108;-79
2024/01/08 00:27:03;;;;;;;13.18;6.15;;;1.70;44.20;;;;;;5021513;28;20022;-79
2024/01/08 00:29:29;;;;;;;11.05;6.10;;;1.70;44.20;;;;;;5025877;28;20116;-79
2024/01/08 00:31:55;;;;;;;10.45;5.60;;;1.70;44.00;;;;;;5008043;28;20489;-80
2024/01/08 00:34:21;;;;;;;10.68;6.07;;;1.80;43.90;;;;;;5025880;28;20044;-79
2024/01/08 00:36:47;;;;;;;12.73;6.40;;;1.80;44.00;;;;;;5021801;28;20481;-79
2024/01/08 00:39:14;;;;;;;9.85;5.47;;;1.80;43.80;;;;;;5006647;28;20149;-79
2024/01/08 00:41:39;;;;;;;11.57;5.80;;;1.80;43.70;;;;;;5022204;28;20455;-79
2024/01/08 00:44:06;;;;;;;12.15;6.60;;;1.80;43.70;;;;;;5022659;28;20065;-80
2024/01/08 00:46:31;;;;;;;11.70;6.13;;;1.80;43.70;;;;;;5006931;28;20111;-79
2024/01/08 00:48:57;;;;;;;11.23;5.95;;;1.80;43.70;;;;;;5021389;28;20072;-79
2024/01/08 00:51:24;;;;;;;11.15;6.18;;;1.90;43.50;;;;;;5021485;28;20172;-79
2024/01/08 00:53:50;;;;;;;9.10;5.85;;;1.90;43.50;;;;;;5023308;28;20340;-79
2024/01/08 00:56:16;;;;;;;10.88;6.18;;;1.90;43.50;;;;;;5006226;28;20034;-79
2024/01/08 00:58:43;;;;;;;12.68;6.80;;;1.90;43.30;;;;;;5006380;28;20539;-79
2024/01/08 01:01:11;;;;;;;12.65;6.43;;;1.90;43.30;;;;;;5023116;28;20076;-80
2024/01/08 01:03:37;;;;;;;10.55;6.22;;;1.90;43.20;;;;;;5025227;28;20037;-80
2024/01/08 01:06:03;;;;;;;13.27;7.00;;;1.90;43.30;;;;;;5022842;28;20598;-80
2024/01/08 01:08:29;;;;;;;11.48;6.30;;;1.90;43.00;;;;;;5024441;28;20040;-80
2024/01/08 01:10:55;;;;;;;12.20;6.10;;;1.90;43.10;;;;;;5022429;28;20416;-79
2024/01/08 01:13:21;;;;;;;12.40;6.72;;;2.00;43.00;;;;;;5026737;28;20073;-80
2024/01/08 01:15:47;;;;;;;12.63;7.03;;;2.00;43.10;;;;;;5008522;28;20583;-80
2024/01/08 01:18:13;;;;;;;10.50;5.97;;;2.00;42.90;;;;;;5024355;28;20065;-80
2024/01/08 01:20:39;;;;;;;9.60;6.00;;;2.00;42.80;;;;;;5021943;28;20034;-80
2024/01/08 01:23:05;;;;;;;11.02;6.30;;;2.00;43.00;;;;;;5019269;28;20034;-80
2024/01/08 01:25:31;;;;;;;13.82;7.20;;;2.00;42.80;;;;;;5007271;28;20042;-80
2024/01/08 01:27:58;;;;;;;12.38;6.85;;;2.10;42.80;;;;;;5025303;28;20508;-80
2024/01/08 01:30:24;;;;;;;15.05;7.13;;;2.10;42.80;;;;;;5023908;28;20041;-79
2024/01/08 01:32:50;;;;;;;12.48;6.93;;;2.10;42.60;;;;;;5007460;28;20036;-80
2024/01/08 01:35:16;;;;;;;12.60;7.00;;;2.10;42.80;;;;;;5008726;28;20037;-80
2024/01/08 01:37:42;;;;;;;11.30;6.65;;;2.10;42.70;;;;;;5025253;28;20115;-82
2024/01/08 01:40:10;;;;;;;13.02;7.07;;;2.10;42.40;;;;;;5025164;28;20392;-91
2024/01/08 01:42:36;;;;;;;14.30;7.10;;;2.10;42.50;;;;;;5005442;28;20045;-84
2024/01/08 01:45:03;;;;;;;13.45;6.60;;;2.20;43.10;;;;;;5009232;28;20534;-84
2024/01/08 01:47:30;;;;;;;14.10;7.28;;;2.10;43.20;;;;;;5025996;28;20038;-85
2024/01/08 01:49:56;;;;;;;13.05;6.72;;;2.20;42.50;;;;;;5038331;28;20562;-83
2024/01/08 01:52:24;;;;;;;12.98;6.10;;;2.20;42.40;;;;;;5004252;28;20072;-83
2024/01/08 01:54:51;;;;;;;14.18;7.00;;;2.20;42.50;;;;;;5008928;28;20033;-85
2024/01/08 01:57:18;;;;;;;13.68;7.05;;;2.30;42.40;;;;;;5008502;28;20029;-83
2024/01/08 01:59:45;;;;;;;12.98;7.07;;;2.20;42.30;;;;;;5019872;28;20088;-83
2024/01/08 02:02:14;;;;;;;13.40;7.10;;;2.30;42.30;;;;;;5008666;28;20037;-84
2024/01/08 02:04:42;;;;;;;12.27;6.50;;;2.30;42.30;;;;;;4994283;28;20045;-86
2024/01/08 02:07:08;;;;;;;12.15;7.10;;;2.30;42.40;;;;;;5023875;28;20094;-87
2024/01/08 02:09:34;;;;;;;11.30;6.10;;;2.30;42.10;;;;;;5024189;28;20025;-87
2024/01/08 02:12:01;;;;;;;13.75;6.63;;;2.40;42.30;;;;;;5021234;28;20128;-86
2024/01/08 02:14:27;;;;;;;13.48;6.80;;;2.40;42.20;;;;;;5018805;28;20033;-86
2024/01/08 02:16:53;;;;;;;11.13;6.05;;;2.40;42.20;;;;;;5028867;28;20029;-88
2024/01/08 02:19:19;;;;;;;13.63;6.65;;;2.40;42.20;;;;;;5029718;28;20125;-87
2024/01/08 02:21:46;;;;;;;11.07;6.45;;;2.40;42.00;;;;;;5009825;28;20029;-90
2024/01/08 02:24:12;;;;;;;11.93;6.20;;;2.40;42.00;;;;;;5002394;28;20037;-84
2024/01/08 02:26:38;;;;;;;10.40;6.00;;;2.40;42.00;;;;;;5025837;28;20566;-89
2024/01/08 02:29:04;;;;;;;12.30;6.82;;;2.40;41.80;;;;;;5010132;28;21177;-88
2024/01/08 02:31:30;;;;;;;11.02;6.38;;;2.40;41.80;;;;;;5031324;28;20041;-86
2024/01/08 02:33:57;;;;;;;11.95;6.43;;;2.40;41.80;;;;;;5035478;28;20041;-84
2024/01/08 02:36:23;;;;;;;13.30;6.55;;;2.40;41.80;;;;;;4999417;28;20037;-85
2024/01/08 02:38:49;;;;;;;12.07;5.78;;;2.50;41.90;;;;;;5029899;28;20045;-84
2024/01/08 02:41:15;;;;;;;12.63;6.68;;;2.50;41.80;;;;;;5020961;28;20090;-84
2024/01/08 02:43:41;;;;;;;10.98;6.28;;;2.50;41.80;;;;;;5023715;28;20396;-85
2024/01/08 02:46:07;;;;;;;13.85;6.50;;;2.50;41.60;;;;;;5021863;28;20033;-85
2024/01/08 02:48:33;;;;;;;10.02;6.35;;;2.50;41.70;;;;;;4992360;28;20507;-84
2024/01/08 02:50:59;;;;;;;12.48;6.22;;;2.60;41.80;;;;;;5007289;28;20033;-85
2024/01/08 02:53:25;;;;;;;10.63;5.75;;;2.60;41.70;;;;;;5020234;28;20048;-84
2024/01/08 02:55:51;;;;;;;11.63;5.55;;;2.60;41.70;;;;;;5008841;28;20056;-84
2024/01/08 02:58:17;;;;;;;9.95;5.53;;;2.60;41.80;;;;;;5021459;28;20091;-86
2024/01/08 03:00:43;;;;;;;10.70;6.18;;;2.70;41.50;;;;;;5000569;28;20041;-83
2024/01/08 03:03:09;;;;;;;11.23;6.15;;;2.70;41.50;;;;;;5025963;28;20025;-86
2024/01/08 03:05:35;;;;;;;9.75;5.70;;;2.70;41.50;;;;;;5021119;28;20041;-83
2024/01/08 03:08:01;;;;;;;11.77;6.30;;;2.60;41.30;;;;;;5007445;28;20136;-85
2024/01/08 03:10:27;;;;;;;11.15;5.93;;;2.70;41.50;;;;;;5019436;28;20033;-84
2024/01/08 03:12:54;;;;;;;14.52;6.50;;;2.70;41.20;;;;;;5019257;28;20042;-84
2024/01/08 03:15:22;;;;;;;11.15;5.82;;;2.70;41.30;;;;;;5016629;28;20682;-84
2024/01/08 03:17:48;;;;;;;11.38;6.40;;;2.70;41.50;;;;;;5007945;28;20052;-84
2024/01/08 03:20:14;;;;;;;8.80;5.55;;;2.80;41.50;;;;;;5020965;28;20068;-84
2024/01/08 03:22:40;;;;;;;12.63;6.20;;;2.80;41.50;;;;;;5005511;28;20087;-84
2024/01/08 03:25:07;;;;;;;11.52;6.40;;;2.80;42.00;;;;;;5034374;28;20064;-85
2024/01/08 03:27:33;;;;;;;9.55;5.85;;;2.80;41.40;;;;;;5029116;28;20049;-83
2024/01/08 03:29:59;;;;;;;11.35;6.30;;;2.80;41.40;;;;;;5024834;28;20498;-85
2024/01/08 03:32:25;;;;;;;12.63;6.03;;;2.90;41.30;;;;;;4990711;28;20037;-85
2024/01/08 03:34:51;;;;;;;12.43;6.82;;;2.90;41.30;;;;;;5018781;28;20524;-83
2024/01/08 03:37:17;;;;;;;10.50;5.68;;;2.90;41.40;;;;;;5005743;28;20033;-85
2024/01/08 03:39:43;;;;;;;11.55;6.22;;;2.90;41.30;;;;;;5021163;28;20037;-84
2024/01/08 03:42:09;;;;;;;11.93;6.18;;;2.90;41.30;;;;;;5020710;28;20036;-84
2024/01/08 03:44:35;;;;;;;12.98;6.32;;;2.90;41.30;;;;;;5020556;28;20033;-83
2024/01/08 03:47:01;;;;;;;12.00;6.07;;;3.00;41.30;;;;;;5017457;28;20049;-85
2024/01/08 03:49:27;;;;;;;9.73;6.13;;;3.00;41.50;;;;;;5020115;28;20527;-83
2024/01/08 03:51:53;;;;;;;12.02;6.43;;;3.00;41.50;;;;;;5021067;28;20033;-84
2024/01/08 03:54:19;;;;;;;12.52;6.50;;;3.00;41.40;;;;;;5023950;28;20177;-83
2024/01/08 03:56:45;;;;;;;12.68;6.60;;;3.10;41.50;;;;;;4990243;28;20045;-87
2024/01/08 03:59:15;;;;;;;11.65;6.63;;;3.10;41.50;;;;;;5024912;28;20038;-86
2024/01/08 04:01:45;;;;;;;12.20;7.05;;;3.10;41.40;;;;;;5022579;28;20043;-85
2024/01/08 04:04:11;;;;;;;14.18;7.45;;;3.10;41.30;;;;;;5026943;28;20772;-83
2024/01/08 04:06:38;;;;;;;12.80;7.55;;;3.20;41.30;;;;;;4989910;28;20029;-86
2024/01/08 04:09:04;;;;;;;13.98;7.68;;;3.20;41.30;;;;;;5022117;28;20056;-87
2024/01/08 04:11:30;;;;;;;14.65;7.22;;;3.20;41.30;;;;;;5019965;28;20091;-88
2024/01/08 04:13:56;;;;;;;14.65;7.55;;;3.20;41.90;;;;;;5022870;28;20091;-87
2024/01/08 04:16:22;;;;;;;15.98;8.15;;;3.20;41.40;;;;;;5021133;28;20050;-88
2024/01/08 04:18:48;;;;;;;16.00;8.43;;;3.20;41.50;;;;;;5020008;28;20065;-86
2024/01/08 04:21:18;;;;;;;14.52;8.90;;;3.20;41.40;;;;;;5004223;28;20060;-87
2024/01/08 04:23:44;;;;;;;16.88;8.75;;;3.20;41.30;;;;;;5023555;28;20042;-85
2024/01/08 04:26:17;;;;;;;18.08;8.93;;;3.30;41.20;;;;;;5004591;28;20057;-85
2024/01/08 04:28:43;;;;;;;18.85;9.20;;;3.30;41.20;;;;;;5021120;28;20048;-85
2024/01/08 04:31:22;;;;;;;19.60;9.55;;;3.30;41.20;;;;;;4989051;28;20520;-84
2024/01/08 04:33:49;;;;;;;19.42;10.07;;;3.30;41.20;;;;;;5006614;28;20041;-84
2024/01/08 04:36:15;;;;;;;18.08;9.73;;;3.30;41.10;;;;;;5006859;28;20030;-84
2024/01/08 04:38:44;;;;;;;19.17;9.90;;;3.30;41.00;;;;;;4990625;28;20128;-85
2024/01/08 04:41:10;;;;;;;19.45;10.75;;;3.30;40.90;;;;;;5005451;28;20053;-86
2024/01/08 04:43:36;;;;;;;17.88;10.43;;;3.30;40.90;;;;;;5023980;28;20504;-83
2024/01/08 04:46:03;;;;;;;20.65;11.02;;;3.30;41.00;;;;;;5007859;28;20033;-85
2024/01/08 04:48:29;;;;;;;18.48;10.35;;;3.30;41.00;;;;;;5021741;28;20575;-87
2024/01/08 04:50:55;;;;;;;20.00;10.82;;;3.30;40.80;;;;;;4993386;28;20558;-82
2024/01/08 04:53:21;;;;;;;21.33;11.05;;;3.30;40.90;;;;;;5026503;28;20038;-85
2024/01/08 04:55:47;;;;;;;19.63;10.93;;;3.30;40.80;;;;;;5023865;28;20084;-84
2024/01/08 04:58:13;;;;;;;19.48;10.43;;;3.30;40.80;;;;;;5022769;28;20452;-84
2024/01/08 05:00:39;;;;;;;19.55;11.00;;;3.30;40.70;;;;;;5020437;28;20040;-83
2024/01/08 05:03:09;;;;;;;21.60;11.88;;;3.30;40.70;;;;;;5022621;28;20025;-85
2024/01/08 05:05:35;;;;;;;22.60;12.25;;;3.40;40.70;;;;;;5009183;28;20049;-83
2024/01/08 05:08:01;;;;;;;21.38;12.20;;;3.30;40.70;;;;;;5023627;28;20500;-83
2024/01/08 05:10:27;;;;;;;21.00;11.57;;;3.40;40.70;;;;;;5018290;28;20041;-84
2024/01/08 05:12:53;;;;;;;23.45;12.40;;;3.40;40.70;;;;;;5022201;28;20049;-83
2024/01/08 05:15:19;;;;;;;20.85;12.07;;;3.40;40.70;;;;;;5010676;28;20036;-87
2024/01/08 05:17:45;;;;;;;22.50;12.57;;;3.40;40.70;;;;;;5006739;28;20052;-85
2024/01/08 05:20:11;;;;;;;23.17;12.55;;;3.40;40.70;;;;;;5020026;28;21426;-84
2024/01/08 05:22:37;;;;;;;21.83;12.60;;;3.40;40.50;;;;;;5022846;28;20037;-85
2024/01/08 05:25:04;;;;;;;20.42;13.07;;;3.40;40.50;;;;;;5021022;28;20092;-87
2024/01/08 05:27:30;;;;;;;23.02;13.32;;;3.40;40.50;;;;;;5008637;28;20116;-85
2024/01/08 05:29:56;;;;;;;25.40;13.27;;;3.40;40.50;;;;;;5025742;28;20109;-85
2024/01/08 05:32:22;;;;;;;23.48;12.70;;;3.40;40.50;;;;;;5021988;28;20034;-86
2024/01/08 05:34:48;;;;;;;22.95;13.38;;;3.40;40.40;;;;;;5022543;28;20056;-84
2024/01/08 05:37:14;;;;;;;24.27;12.70;;;3.50;41.00;;;;;;5022340;28;20065;-84
2024/01/08 05:39:40;;;;;;;21.02;12.00;;;3.50;40.40;;;;;;5010100;28;20030;-84
2024/01/08 05:42:06;;;;;;;21.73;12.43;;;3.50;40.40;;;;;;5021420;28;20384;-84
2024/01/08 05:44:32;;;;;;;20.45;12.15;;;3.50;40.40;;;;;;5022995;28;21109;-84
2024/01/08 05:46:58;;;;;;;21.83;12.70;;;3.50;40.50;;;;;;5025499;28;20033;-85
2024/01/08 05:49:24;;;;;;;21.75;12.32;;;3.50;40.50;;;;;;5011215;28;20044;-86
2024/01/08 05:51:50;;;;;;;21.50;11.93;;;3.50;40.40;;;;;;5009185;28;20157;-85
2024/01/08 05:54:16;;;;;;;19.92;11.82;;;3.60;40.40;;;;;;4992848;28;20402;-84
2024/01/08 05:56:42;;;;;;;20.83;11.77;;;3.50;40.30;;;;;;5006220;28;20095;-84
2024/01/08 05:59:08;;;;;;;21.27;11.88;;;3.60;40.30;;;;;;5020892;28;20029;-84
2024/01/08 06:01:34;;;;;;;21.05;11.52;;;3.60;40.20;;;;;;5020703;28;20030;-86
2024/01/08 06:04:01;;;;;;;18.17;10.75;;;3.60;40.20;;;;;;5009185;28;20034;-86
2024/01/08 06:06:27;;;;;;;16.58;10.32;;;3.60;40.20;;;;;;5009575;28;20124;-91
2024/01/08 06:08:53;;;;;;;20.58;11.43;;;3.60;40.20;;;;;;5023719;28;20120;-84
2024/01/08 06:11:19;;;;;;;18.50;10.93;;;3.60;40.30;;;;;;5038870;28;20034;-89
2024/01/08 06:13:45;;;;;;;18.00;10.65;;;3.60;40.30;;;;;;5079024;22;20150;-89
2024/01/08 06:16:18;;;;;;;20.67;11.00;;;3.60;40.30;;;;;;5007979;28;20049;-83
2024/01/08 06:18:44;;;;;;;20.63;11.45;;;3.70;40.30;;;;;;5016977;28;20124;-89
2024/01/08 06:21:10;;;;;;;19.92;11.13;;;3.70;40.20;;;;;;5006483;28;20028;-86
2024/01/08 06:23:36;;;;;;;22.50;11.75;;;3.70;40.30;;;;;;5020125;28;20496;-81
2024/01/08 06:26:03;;;;;;;16.08;9.50;;;3.70;41.50;;;;;;4996043;28;20504;-85
2024/01/08 06:28:29;;;;;;;18.90;10.43;;;3.70;45.30;;;;;;5009116;28;20029;-82
2024/01/08 06:30:56;;;;;;;18.55;10.10;;;3.80;46.00;;;;;;5022771;28;20095;-82
2024/01/08 06:33:22;;;;;;;21.02;10.68;;;3.80;45.00;;;;;;5022091;28;20087;-82
2024/01/08 06:35:48;;;;;;;16.83;10.45;;;3.80;44.00;;;;;;5030611;28;20040;-83
2024/01/08 06:38:14;;;;;;;18.63;11.13;;;3.80;43.20;;;;;;4994039;28;20961;-85
2024/01/08 06:40:40;;;;;;;22.98;12.02;;;3.80;42.50;;;;;;5013621;28;20041;-87
2024/01/08 06:43:06;;;;;;;22.05;11.95;;;3.80;42.10;;;;;;4997235;28;20033;-85
2024/01/08 06:45:32;;;;;;;20.98;12.70;;;3.80;41.80;;;;;;5022728;28;20562;-84
2024/01/08 06:47:58;;;;;;;23.20;13.20;;;3.70;41.50;;;;;;5024200;28;20029;-85
2024/01/08 06:50:25;;;;;;;25.77;13.18;;;3.80;41.40;;;;;;5045848;28;20191;-88
2024/01/08 06:52:51;;;;;;;22.58;12.93;;;3.80;41.80;;;;;;5027116;28;20389;-85
2024/01/08 06:55:17;;;;;;;21.27;12.43;;;3.80;41.00;;;;;;5011635;28;20083;-86
2024/01/08 06:57:43;;;;;;;22.52;12.10;;;3.80;41.00;;;;;;5045323;28;20025;-86
2024/01/08 07:00:10;;;;;;;23.15;12.02;;;3.80;40.90;;;;;;5024952;28;20033;-84
2024/01/08 07:02:36;;;;;;;21.13;10.85;;;3.80;41.10;;;;;;5042243;28;20466;-83
2024/01/08 07:05:02;;;;;;;22.15;11.30;;;3.80;43.00;;;;;;5044117;28;20037;-86
2024/01/08 07:07:28;;;;;;;22.20;11.32;;;3.80;42.80;;;;;;4988745;28;21422;-87
2024/01/08 07:09:54;;;;;;;18.40;10.80;;;3.80;42.30;;;;;;5042795;28;20106;-87
2024/01/08 07:12:20;;;;;;;18.60;10.43;;;3.90;42.10;;;;;;5042861;28;20484;-86
2024/01/08 07:14:46;;;;;;;18.17;9.80;;;3.90;41.70;;;;;;5043654;28;20407;-83
2024/01/08 07:17:12;;;;;;;17.52;9.90;;;3.90;41.50;;;;;;5024493;28;20091;-84
2024/01/08 07:19:38;;;;;;;19.40;10.65;;;3.90;41.30;;;;;;5026153;28;20096;-85
2024/01/08 07:22:04;;;;;;;16.88;9.75;;;3.90;41.10;;;;;;5025396;28;20075;-84
2024/01/08 07:24:30;;;;;;;16.67;9.55;;;3.90;41.00;;;;;;5026878;28;20033;-84
2024/01/08 07:26:59;;;;;;;18.00;9.85;;;3.90;41.00;;;;;;5013574;28;20509;-84
2024/01/08 07:29:26;;;;;;;15.13;9.10;;;3.90;40.80;;;;;;5009134;28;20051;-85
2024/01/08 07:31:52;;;;;;;16.73;9.70;;;3.90;40.90;;;;;;5044400;28;20040;-87
2024/01/08 07:34:19;;;;;;;15.68;9.35;;;4.00;41.00;;;;;;5030733;28;20048;-83
2024/01/08 07:36:45;;;;;;;15.70;9.30;;;4.00;40.90;;;;;;5047257;28;20130;-86
2024/01/08 07:39:14;;;;;;;15.57;9.02;;;3.90;40.90;;;;;;5013672;28;20571;-84
2024/01/08 07:41:41;;;;;;;16.58;9.02;;;4.00;40.80;;;;;;5023016;28;20037;-84
2024/01/08 07:44:07;;;;;;;15.18;9.13;;;4.00;40.80;;;;;;5024043;28;20041;-83
2024/01/08 07:46:33;;;;;;;14.32;8.73;;;4.00;40.80;;;;;;5042899;28;20563;-80
2024/01/08 07:48:59;;;;;;;14.93;8.95;;;4.00;40.80;;;;;;5031347;28;20036;-90
2024/01/08 07:51:26;;;;;;;14.65;8.65;;;4.00;40.70;;;;;;5021271;28;20036;-86
2024/01/08 07:53:55;;;;;;;14.43;8.65;;;4.00;40.70;;;;;;5021496;28;20041;-85
2024/01/08 07:56:27;;;;;;;14.07;8.23;;;4.00;40.60;;;;;;5022191;28;20520;-89
2024/01/08 07:58:54;;;;;;;13.43;8.00;;;4.00;40.70;;;;;;5004476;28;20041;-90
2024/01/08 08:01:20;;;;;;;15.13;8.52;;;4.10;41.00;;;;;;5035168;28;20029;-88
2024/01/08 08:03:46;;;;;;;13.82;8.43;;;4.10;41.00;;;;;;5018426;28;20037;-90
2024/01/08 08:06:12;;;;;;;15.02;8.52;;;4.10;41.00;;;;;;5052652;28;20083;-86
2024/01/08 08:08:38;;;;;;;13.75;8.50;;;4.20;41.10;;;;;;5053090;28;20084;-88
2024/01/08 08:11:06;;;;;;;12.95;8.50;;;4.20;41.10;;;;;;5047640;28;20041;-87
2024/01/08 08:13:32;;;;;;;13.95;8.02;;;4.30;41.20;;;;;;5022316;28;20045;-89
2024/01/08 08:16:01;;;;;;;14.38;8.43;;;4.30;41.30;;;;;;5024017;28;20048;-88
2024/01/08 08:18:27;;;;;;;13.15;7.47;;;4.40;41.40;;;;;;5035114;28;20127;-91
2024/01/08 08:20:53;;;;;;;14.85;8.20;;;4.50;41.50;;;;;;5019465;28;20044;-90
2024/01/08 08:23:19;;;;;;;12.82;7.68;;;4.50;41.50;;;;;;5018826;28;20033;-87
2024/01/08 08:25:45;;;;;;;11.73;7.35;;;4.60;41.40;;;;;;5014517;28;20115;-88
2024/01/08 08:28:11;;;;;;;14.20;8.18;;;4.60;41.60;;;;;;5001465;28;20025;-90
2024/01/08 08:30:39;;;;;;;14.65;7.82;;;4.70;41.60;;;;;;5016879;28;20021;-89
2024/01/08 08:33:06;;;;;;;12.80;7.57;;;4.70;41.80;;;;;;4998853;28;20033;-87
2024/01/08 08:35:34;;;;;;;13.75;7.13;;;4.80;41.90;;;;;;5002687;28;20037;-90
2024/01/08 08:38:00;;;;;;;13.57;7.45;;;4.80;42.00;;;;;;5026277;28;20060;-94
2024/01/08 08:40:26;;;;;;;11.27;6.85;;;4.80;42.00;;;;;;5028204;28;20063;-93
2024/01/08 08:42:54;;;;;;;10.23;6.53;;;4.80;42.00;;;;;;5002147;28;20122;-90
2024/01/08 08:45:22;;;;;;;10.90;6.90;;;4.90;42.00;;;;;;5024578;28;20060;-90
2024/01/08 08:47:49;;;;;;;12.75;7.20;;;5.00;42.00;;;;;;5018799;28;20065;-90
2024/01/08 08:50:18;;;;;;;11.43;6.90;;;5.00;42.00;;;;;;5004467;28;20478;-88
2024/01/08 08:52:45;;;;;;;11.88;7.13;;;5.00;41.90;;;;;;5014298;28;20044;-89
2024/01/08 08:55:12;;;;;;;12.02;7.20;;;5.00;41.90;;;;;;5039937;28;20109;-87
2024/01/08 08:57:38;;;;;;;13.40;7.32;;;5.10;42.50;;;;;;5081006;23;20117;-89
2024/01/08 09:00:08;;;;;;;12.70;6.55;;;5.10;41.90;;;;;;5030681;28;20060;-88
2024/01/08 09:02:34;;;;;;;11.30;7.00;;;5.10;41.80;;;;;;5016400;28;20095;-91
2024/01/08 09:05:01;;;;;;;10.02;6.60;;;5.20;41.90;;;;;;5019587;28;20030;-85
2024/01/08 09:07:27;;;;;;;14.65;7.22;;;5.20;41.80;;;;;;5014301;28;20527;-85
2024/01/08 09:09:53;;;;;;;11.23;7.60;;;5.30;41.80;;;;;;4983867;28;20053;-86
2024/01/08 09:12:19;;;;;;;11.85;6.85;;;5.30;41.50;;;;;;5016834;28;20040;-85
2024/01/08 09:14:45;;;;;;;10.15;6.68;;;5.40;41.50;;;;;;4999329;28;20034;-83
2024/01/08 09:17:11;;;;;;;13.10;7.35;;;5.40;41.40;;;;;;5016073;28;20033;-86
2024/01/08 09:19:38;;;;;;;12.32;7.35;;;5.50;42.00;;;;;;5011311;28;20821;-86
2024/01/08 09:22:04;;;;;;;11.38;7.10;;;5.50;41.40;;;;;;5013801;28;20025;-87
2024/01/08 09:24:30;;;;;;;14.40;7.47;;;5.50;41.30;;;;;;5001279;28;20493;-83
2024/01/08 09:26:56;;;;;;;10.43;6.60;;;5.50;41.20;;;;;;5002022;28;20045;-88
2024/01/08 09:29:22;;;;;;;12.43;7.72;;;5.50;41.10;;;;;;5017486;28;20053;-88
2024/01/08 09:31:49;;;;;;;11.57;7.20;;;5.50;41.20;;;;;;5017966;28;20525;-85
2024/01/08 09:34:15;;;;;;;15.93;7.80;;;5.50;41.10;;;;;;5016358;28;20052;-91
2024/01/08 09:36:41;;;;;;;12.05;7.60;;;5.50;41.00;;;;;;5017485;28;20037;-87
2024/01/08 09:39:08;;;;;;;13.10;7.82;;;5.50;41.00;;;;;;5019824;28;20040;-84
2024/01/08 09:41:34;;;;;;;12.75;7.53;;;5.50;41.10;;;;;;5017358;28;20504;-94
2024/01/08 09:44:03;;;;;;;13.13;7.35;;;5.40;41.10;;;;;;5021602;28;20072;-86
2024/01/08 09:46:35;;;;;;;11.57;7.30;;;5.40;41.10;;;;;;5007340;28;20069;-84
2024/01/08 09:49:03;;;;;;;14.35;7.50;;;5.40;41.10;;;;;;5014043;28;20034;-83
2024/01/08 09:51:29;;;;;;;13.77;7.82;;;5.40;41.10;;;;;;5010457;28;20049;-80
2024/01/08 09:53:59;;;;;;;10.82;6.95;;;5.40;41.20;;;;;;5009015;28;20171;-79
2024/01/08 09:56:27;;;;;;;11.90;7.00;;;5.40;41.10;;;;;;5009215;28;20598;-80
2024/01/08 09:58:53;;;;;;;11.20;7.70;;;5.50;41.10;;;;;;4998092;28;20088;-79
2024/01/08 10:01:19;;;;;;;11.98;7.30;;;5.40;41.00;;;;;;5009813;28;20037;-81
2024/01/08 10:03:47;;;;;;;12.15;7.78;;;5.40;41.00;;;;;;5010120;28;20029;-81
2024/01/08 10:06:13;;;;;;;9.65;6.78;;;5.40;40.80;;;;;;5010264;28;20512;-80
2024/01/08 10:08:39;;;;;;;13.75;7.20;;;5.40;40.90;;;;;;5010609;28;20048;-79
2024/01/08 10:11:06;;;;;;;11.35;6.78;;;5.30;41.00;;;;;;5009530;28;20686;-80
2024/01/08 10:13:34;;;;;;;11.57;7.32;;;5.30;41.00;;;;;;5008444;28;20042;-80
2024/01/08 10:16:00;;;;;;;10.15;6.32;;;5.30;41.00;;;;;;5010782;28;20038;-83
2024/01/08 10:18:28;;;;;;;13.85;7.43;;;5.20;41.00;;;;;;4995207;28;20034;-78
2024/01/08 10:21:11;;;;;;;14.32;7.28;;;5.20;41.10;;;;;;5005499;28;20034;-79
2024/01/08 10:23:38;;;;;;;11.48;7.00;;;5.20;41.20;;;;;;5011478;28;20045;-80
2024/01/08 10:26:04;;;;;;;10.85;6.90;;;5.10;41.20;;;;;;5012511;28;20056;-80
2024/01/08 10:28:37;;;;;;;10.75;6.57;;;5.10;41.00;;;;;;5010993;28;20049;-82
2024/01/08 10:31:05;;;;;;;11.60;6.65;;;5.10;41.10;;;;;;4995386;28;20125;-82
2024/01/08 10:33:32;;;;;;;11.20;6.47;;;5.10;41.10;;;;;;5006228;28;20036;-83
2024/01/08 10:36:01;;;;;;;13.43;6.85;;;5.10;41.10;;;;;;4997672;28;20026;-81
2024/01/08 10:38:33;;;;;;;12.20;6.85;;;5.10;41.10;;;;;;5014928;28;20121;-81
2024/01/08 10:41:03;;;;;;;10.85;6.30;;;5.10;41.10;;;;;;5004249;28;20026;-81
2024/01/08 10:43:30;;;;;;;10.82;6.40;;;5.10;41.10;;;;;;5005090;28;20746;-81
2024/01/08 10:46:00;;;;;;;13.35;6.90;;;5.10;41.10;;;;;;5012425;28;20038;-80
2024/01/08 10:48:40;;;;;;;10.73;5.90;;;5.00;41.00;;;;;;5013466;28;20041;-82
2024/01/08 10:51:11;;;;;;;12.25;7.10;;;5.10;41.10;;;;;;5010814;28;20041;-83
2024/01/08 10:53:43;;;;;;;11.25;6.00;;;5.10;41.10;;;;;;4980192;28;20225;-82
2024/01/08 10:56:13;;;;;;;10.45;6.13;;;5.10;41.00;;;;;;5007662;28;20061;-82
2024/01/08 10:58:49;;;;;;;11.80;6.47;;;5.10;40.90;;;;;;5029442;28;20034;-82
2024/01/08 11:01:17;;;;;;;11.45;6.53;;;5.10;41.00;;;;;;4975486;28;20030;-85
2024/01/08 11:03:44;;;;;;;10.38;6.28;;;5.10;40.90;;;;;;5014157;28;20396;-85
2024/01/08 11:06:12;;;;;;;11.00;6.20;;;5.10;41.00;;;;;;5014939;28;20029;-85
2024/01/08 11:08:38;;;;;;;10.57;6.03;;;5.10;41.00;;;;;;4996489;28;20033;-81
2024/01/08 11:11:11;;;;;;;10.13;6.30;;;5.10;41.00;;;;;;5015805;28;20041;-82
2024/01/08 11:13:40;;;;;;;10.13;6.40;;;5.00;41.10;;;;;;5012860;28;20046;-81
2024/01/08 11:16:08;;;;;;;11.18;6.25;;;5.10;41.10;;;;;;5017435;28;20123;-86
2024/01/08 11:18:34;;;;;;;10.13;6.53;;;5.00;40.90;;;;;;5013061;28;20132;-84
2024/01/08 11:21:01;;;;;;;10.60;6.32;;;5.10;41.10;;;;;;4980104;28;20460;-84
2024/01/08 11:23:30;;;;;;;9.90;6.10;;;5.00;41.00;;;;;;4995838;28;20508;-86
2024/01/08 11:25:56;;;;;;;10.57;6.07;;;5.10;40.90;;;;;;4987309;28;20519;-83
2024/01/08 11:28:23;;;;;;;11.18;6.25;;;5.10;40.80;;;;;;5006556;28;20038;-87
2024/01/08 11:31:09;;;;;;;11.70;6.25;;;5.10;40.70;;;;;;5000317;28;20038;-90
2024/01/08 11:33:59;;;;;;;10.75;6.82;;;5.10;40.80;;;;;;5020341;28;20119;-89
2024/01/08 11:36:47;;;;;;;11.68;7.00;;;5.10;40.80;;;;;;5005152;28;20037;-88
2024/01/08 11:39:18;;;;;;;11.57;6.25;;;5.10;41.40;;;;;;4995388;28;20116;-88
2024/01/08 11:41:48;;;;;;;10.80;6.38;;;5.10;40.70;;;;;;5000348;28;20034;-90
2024/01/08 11:44:14;;;;;;;11.00;6.53;;;5.10;40.80;;;;;;5018884;28;20037;-89
2024/01/08 11:46:47;;;;;;;11.25;6.38;;;5.10;40.80;;;;;;4983988;28;20034;-90
2024/01/08 11:49:13;;;;;;;10.07;5.95;;;5.10;40.60;;;;;;4998074;28;20377;-90
2024/01/08 11:51:44;;;;;;;9.02;5.97;;;5.20;40.70;;;;;;5001214;28;20066;-91
2024/01/08 11:54:20;;;;;;;12.50;6.38;;;5.10;40.70;;;;;;4983701;28;20046;-90
2024/01/08 11:56:46;;;;;;;10.82;6.57;;;5.20;40.60;;;;;;4986570;28;20050;-92
2024/01/08 11:59:28;;;;;;;9.93;5.82;;;5.10;40.50;;;;;;4979103;28;20710;-92
2024/01/08 12:01:54;;;;;;;11.73;6.38;;;5.10;40.60;;;;;;5015565;28;20036;-91
2024/01/08 12:04:20;;;;;;;11.15;6.50;;;5.10;40.50;;;;;;5016570;28;20037;-92
2024/01/08 12:06:46;;;;;;;10.40;6.32;;;5.10;40.70;;;;;;5015437;28;20063;-90
2024/01/08 12:09:12;;;;;;;11.98;5.78;;;5.10;40.50;;;;;;4980985;28;20038;-87
2024/01/08 12:11:38;;;;;;;9.88;5.95;;;5.10;40.50;;;;;;4996009;28;20030;-89
2024/01/08 12:14:04;;;;;;;8.93;5.35;;;5.10;40.60;;;;;;5015518;28;20042;-86
2024/01/08 12:16:31;;;;;;;8.43;5.22;;;5.10;40.50;;;;;;5017732;28;20049;-89
2024/01/08 12:18:59;;;;;;;8.15;4.97;;;5.10;40.50;;;;;;5015016;28;20061;-90
2024/01/08 12:21:26;;;;;;;9.00;4.90;;;5.10;41.20;;;;;;4981804;28;20560;-92
2024/01/08 12:23:53;;;;;;;7.53;5.10;;;5.10;40.50;;;;;;4997320;28;20041;-87
2024/01/08 12:26:20;;;;;;;7.32;4.57;;;5.10;40.50;;;;;;5015720;28;20033;-93
2024/01/08 12:28:46;;;;;;;8.77;4.80;;;5.10;40.50;;;;;;4983284;28;20029;-88
2024/01/08 12:31:13;;;;;;;9.73;5.50;;;5.10;40.50;;;;;;5013968;28;20034;-87
2024/01/08 12:33:41;;;;;;;8.43;4.85;;;5.10;40.40;;;;;;5016590;28;20036;-89
2024/01/08 12:36:08;;;;;;;7.55;4.90;;;5.10;40.50;;;;;;5018267;28;20504;-91
2024/01/08 12:38:35;;;;;;;8.60;4.70;;;5.10;40.60;;;;;;5014987;28;20037;-89
2024/01/08 12:41:01;;;;;;;6.85;4.20;;;5.10;40.50;;;;;;4980348;28;20121;-90
2024/01/08 12:43:28;;;;;;;6.82;4.38;;;5.10;40.80;;;;;;5015205;28;20037;-90